ウィーン の空港の天気 - METARとTAF

ウィーン国際空港 ( LOWW / VIE ) - オーストリア ウィーン
飛行場実況気象(Metar)
観測時間01/23 04:50 CET (01/23 03:50 UTC)
風向・風速北 3m/s
視程3400m
天気現象弱いしゅう雪 もや
少しの雲 雲底高度 60m
全天の8割程度の雲 雲底高度 850m
気温0℃
湿度100%
気圧1018hPa
METARLOWW 230350Z 01005KT 3400 -SHSN BR FEW002 BKN028 M00/M00 Q1018 R88/29//95 TEMPO 2000 SHSN FEW002 BKN005 OVC010
過去の天気等 Google飛行場航空写真 Wunderground天気予報

過去48時間のMETAR

飛行場予報(TAF)
発表時間: 1/23 00:15 CET (1/22 23:15 UTC)
予報対象時間: 23日1時 CET ~ 24日7時 CET
風向・風速南南東 4m/s
視程10km以上
少しの雲 雲底高度 150m
全天の8割程度の雲 雲底高度 460m
全天の8割程度の雲 雲底高度 2,130m
23日1時 CET ~ 23日7時 CET に一時的に
風向・風速不定 1m/s
視程4,000m
天気現象弱い雪 もや
少しの雲 雲底高度 150m
全天の8割程度の雲 雲底高度 300m
全天を覆う雲 雲底高度 610m
23日1時 CET ~ 23日4時 CET に 確率 30% で一時的に
視程2,000m
天気現象雪 もや
少しの雲 雲底高度 120m
全天の8割程度の雲 雲底高度 240m
全天を覆う雲 雲底高度 460m
23日4時 CET ~ 23日7時 CET に 確率 30% で一時的に
視程1,200m
天気現象弱い氷雨雪 もや
少しの雲 雲底高度 90m
全天の8割程度の雲 雲底高度 180m
全天を覆う雲 雲底高度 300m
23日7時 CET ~ 23日10時 CET に徐々に
風向・風速北北西 4m/s
視程10km以上
天気現象弱い雨
少しの雲 雲底高度 300m
全天を覆う雲 雲底高度 610m
23日16時 CET から
風向・風速西 4m/s
視程10km以上
少しの雲 雲底高度 610m
全天の8割程度の雲 雲底高度 1,220m
24日2時 CET ~ 24日5時 CET に徐々に
風向・風速南 4m/s
視程5,000m
天気現象もや
全天の4割程度の雲 雲底高度 60m
TAF LOWW 222315Z 2300/2406 15007KT 9999 FEW005 BKN015 BKN070 TX04/2314Z TNM00/2306Z
TEMPO 2300/2306 VRB02KT 4000 -SN BR FEW005 BKN010 OVC020
PROB30 TEMPO 2300/2303 2000 SN BR FEW004 BKN008 OVC015
PROB30 TEMPO 2303/2306 1200 -FZRASN BR FEW003 BKN006 OVC010
BECMG 2306/2309 34008KT 9999 -RA FEW010 OVC020
FM231500 27007KT 9999 FEW020 BKN040
BECMG 2401/2404 17007KT 5000 BR SCT002